sensor_id;sensor_type;location;lat;lon;timestamp;P1;durP1;ratioP1;P2;durP2;ratioP2
7377;SDS011;3730;50.856;12.776;2023-03-01T00:02:02;27.80;;;18.20;;
7377;SDS011;3730;50.856;12.776;2023-03-01T00:04:27;28.80;;;18.20;;
7377;SDS011;3730;50.856;12.776;2023-03-01T00:06:53;27.20;;;18.87;;
7377;SDS011;3730;50.856;12.776;2023-03-01T00:09:19;28.13;;;18.10;;
7377;SDS011;3730;50.856;12.776;2023-03-01T00:11:45;30.27;;;19.13;;
7377;SDS011;3730;50.856;12.776;2023-03-01T00:14:11;31.13;;;19.30;;
7377;SDS011;3730;50.856;12.776;2023-03-01T00:16:38;31.97;;;19.70;;
7377;SDS011;3730;50.856;12.776;2023-03-01T00:19:06;31.60;;;19.33;;
7377;SDS011;3730;50.856;12.776;2023-03-01T00:21:33;28.97;;;18.87;;
7377;SDS011;3730;50.856;12.776;2023-03-01T00:24:00;33.27;;;20.13;;
7377;SDS011;3730;50.856;12.776;2023-03-01T00:26:26;31.03;;;20.00;;
7377;SDS011;3730;50.856;12.776;2023-03-01T00:28:52;30.77;;;19.57;;
7377;SDS011;3730;50.856;12.776;2023-03-01T00:31:21;30.23;;;19.13;;
7377;SDS011;3730;50.856;12.776;2023-03-01T00:33:48;28.80;;;18.07;;
7377;SDS011;3730;50.856;12.776;2023-03-01T00:36:21;30.60;;;17.87;;
7377;SDS011;3730;50.856;12.776;2023-03-01T00:38:47;27.90;;;18.20;;
7377;SDS011;3730;50.856;12.776;2023-03-01T00:41:14;32.07;;;18.77;;
7377;SDS011;3730;50.856;12.776;2023-03-01T00:43:41;28.00;;;18.40;;
7377;SDS011;3730;50.856;12.776;2023-03-01T00:46:11;27.23;;;18.23;;
7377;SDS011;3730;50.856;12.776;2023-03-01T00:48:39;29.63;;;17.77;;
7377;SDS011;3730;50.856;12.776;2023-03-01T00:51:24;27.87;;;17.80;;
7377;SDS011;3730;50.856;12.776;2023-03-01T00:53:52;29.90;;;19.63;;
7377;SDS011;3730;50.856;12.776;2023-03-01T00:56:19;27.67;;;18.87;;
7377;SDS011;3730;50.856;12.776;2023-03-01T00:58:44;29.23;;;18.70;;
7377;SDS011;3730;50.856;12.776;2023-03-01T01:01:14;32.30;;;19.23;;
7377;SDS011;3730;50.856;12.776;2023-03-01T01:06:17;32.33;;;18.87;;
7377;SDS011;3730;50.856;12.776;2023-03-01T01:08:48;30.73;;;19.03;;
7377;SDS011;3730;50.856;12.776;2023-03-01T01:11:14;27.77;;;17.97;;
7377;SDS011;3730;50.856;12.776;2023-03-01T01:13:41;27.43;;;17.63;;
7377;SDS011;3730;50.856;12.776;2023-03-01T01:16:08;28.03;;;17.63;;
7377;SDS011;3730;50.856;12.776;2023-03-01T01:18:34;27.03;;;18.73;;
7377;SDS011;3730;50.856;12.776;2023-03-01T01:21:04;25.70;;;17.67;;
7377;SDS011;3730;50.856;12.776;2023-03-01T01:23:31;31.20;;;18.67;;
7377;SDS011;3730;50.856;12.776;2023-03-01T01:25:57;27.57;;;17.93;;
7377;SDS011;3730;50.856;12.776;2023-03-01T01:28:28;27.53;;;17.77;;
7377;SDS011;3730;50.856;12.776;2023-03-01T01:30:53;28.27;;;18.20;;
7377;SDS011;3730;50.856;12.776;2023-03-01T01:33:19;29.53;;;18.63;;
7377;SDS011;3730;50.856;12.776;2023-03-01T01:35:45;31.90;;;18.87;;
7377;SDS011;3730;50.856;12.776;2023-03-01T01:38:10;26.97;;;17.33;;
7377;SDS011;3730;50.856;12.776;2023-03-01T01:40:42;27.53;;;18.73;;
7377;SDS011;3730;50.856;12.776;2023-03-01T01:43:14;27.43;;;17.60;;
7377;SDS011;3730;50.856;12.776;2023-03-01T01:45:46;26.37;;;17.63;;
7377;SDS011;3730;50.856;12.776;2023-03-01T01:48:14;28.73;;;18.47;;
7377;SDS011;3730;50.856;12.776;2023-03-01T01:50:45;29.03;;;18.03;;
7377;SDS011;3730;50.856;12.776;2023-03-01T01:53:17;30.63;;;19.07;;
7377;SDS011;3730;50.856;12.776;2023-03-01T01:55:53;26.07;;;16.77;;
7377;SDS011;3730;50.856;12.776;2023-03-01T01:58:22;32.30;;;19.30;;
7377;SDS011;3730;50.856;12.776;2023-03-01T02:00:50;27.57;;;18.60;;
7377;SDS011;3730;50.856;12.776;2023-03-01T02:03:34;25.87;;;16.73;;
7377;SDS011;3730;50.856;12.776;2023-03-01T02:06:11;28.43;;;18.07;;
7377;SDS011;3730;50.856;12.776;2023-03-01T02:08:53;27.03;;;17.37;;
7377;SDS011;3730;50.856;12.776;2023-03-01T02:11:23;29.93;;;17.70;;
7377;SDS011;3730;50.856;12.776;2023-03-01T02:13:50;28.13;;;17.27;;
7377;SDS011;3730;50.856;12.776;2023-03-01T02:16:17;24.30;;;16.53;;
7377;SDS011;3730;50.856;12.776;2023-03-01T02:18:43;25.57;;;17.33;;
7377;SDS011;3730;50.856;12.776;2023-03-01T02:21:13;27.67;;;17.30;;
7377;SDS011;3730;50.856;12.776;2023-03-01T02:23:47;25.80;;;16.97;;
7377;SDS011;3730;50.856;12.776;2023-03-01T02:26:17;25.57;;;17.00;;
7377;SDS011;3730;50.856;12.776;2023-03-01T02:28:45;27.33;;;17.53;;
7377;SDS011;3730;50.856;12.776;2023-03-01T02:31:13;30.43;;;18.33;;
7377;SDS011;3730;50.856;12.776;2023-03-01T02:33:59;28.63;;;17.97;;
7377;SDS011;3730;50.856;12.776;2023-03-01T02:36:26;27.43;;;17.53;;
7377;SDS011;3730;50.856;12.776;2023-03-01T02:38:55;26.70;;;17.27;;
7377;SDS011;3730;50.856;12.776;2023-03-01T02:41:22;28.90;;;17.53;;
7377;SDS011;3730;50.856;12.776;2023-03-01T02:43:51;31.33;;;19.33;;
7377;SDS011;3730;50.856;12.776;2023-03-01T02:46:18;29.07;;;18.17;;
7377;SDS011;3730;50.856;12.776;2023-03-01T02:56:43;30.73;;;19.37;;
7377;SDS011;3730;50.856;12.776;2023-03-01T02:59:09;31.53;;;19.63;;
7377;SDS011;3730;50.856;12.776;2023-03-01T03:01:36;31.07;;;18.60;;
7377;SDS011;3730;50.856;12.776;2023-03-01T03:04:03;30.93;;;19.13;;
7377;SDS011;3730;50.856;12.776;2023-03-01T03:06:29;30.83;;;19.30;;
7377;SDS011;3730;50.856;12.776;2023-03-01T03:08:55;34.83;;;20.20;;
7377;SDS011;3730;50.856;12.776;2023-03-01T03:11:20;36.33;;;21.00;;
7377;SDS011;3730;50.856;12.776;2023-03-01T03:13:46;32.97;;;20.00;;
7377;SDS011;3730;50.856;12.776;2023-03-01T03:16:13;30.80;;;18.57;;
7377;SDS011;3730;50.856;12.776;2023-03-01T03:18:39;34.93;;;19.60;;
7377;SDS011;3730;50.856;12.776;2023-03-01T03:21:07;33.17;;;19.33;;
7377;SDS011;3730;50.856;12.776;2023-03-01T03:23:35;31.97;;;20.23;;
7377;SDS011;3730;50.856;12.776;2023-03-01T03:26:01;28.43;;;18.33;;
7377;SDS011;3730;50.856;12.776;2023-03-01T03:28:29;31.60;;;18.80;;
7377;SDS011;3730;50.856;12.776;2023-03-01T03:30:58;32.30;;;18.73;;
7377;SDS011;3730;50.856;12.776;2023-03-01T03:33:28;30.97;;;19.20;;
7377;SDS011;3730;50.856;12.776;2023-03-01T03:35:57;29.53;;;18.20;;
7377;SDS011;3730;50.856;12.776;2023-03-01T03:38:22;31.00;;;18.67;;
7377;SDS011;3730;50.856;12.776;2023-03-01T03:40:49;29.50;;;18.33;;
7377;SDS011;3730;50.856;12.776;2023-03-01T03:43:20;34.53;;;20.33;;
7377;SDS011;3730;50.856;12.776;2023-03-01T03:45:48;32.53;;;19.43;;
7377;SDS011;3730;50.856;12.776;2023-03-01T03:48:14;33.47;;;19.70;;
7377;SDS011;3730;50.856;12.776;2023-03-01T03:50:40;30.97;;;18.87;;
7377;SDS011;3730;50.856;12.776;2023-03-01T03:53:10;30.10;;;18.67;;
7377;SDS011;3730;50.856;12.776;2023-03-01T03:55:37;31.20;;;17.93;;
7377;SDS011;3730;50.856;12.776;2023-03-01T03:58:07;29.77;;;19.47;;
7377;SDS011;3730;50.856;12.776;2023-03-01T04:00:35;29.83;;;18.40;;
7377;SDS011;3730;50.856;12.776;2023-03-01T04:03:02;29.20;;;18.87;;
7377;SDS011;3730;50.856;12.776;2023-03-01T04:05:28;31.10;;;19.27;;
7377;SDS011;3730;50.856;12.776;2023-03-01T04:07:54;33.47;;;19.23;;
7377;SDS011;3730;50.856;12.776;2023-03-01T04:10:30;29.77;;;18.43;;
7377;SDS011;3730;50.856;12.776;2023-03-01T04:12:56;35.07;;;18.93;;
7377;SDS011;3730;50.856;12.776;2023-03-01T04:15:23;30.93;;;19.80;;
7377;SDS011;3730;50.856;12.776;2023-03-01T04:17:49;31.97;;;20.43;;
7377;SDS011;3730;50.856;12.776;2023-03-01T04:20:17;30.37;;;19.17;;
7377;SDS011;3730;50.856;12.776;2023-03-01T04:22:49;31.37;;;20.60;;
7377;SDS011;3730;50.856;12.776;2023-03-01T04:25:16;31.03;;;20.00;;
7377;SDS011;3730;50.856;12.776;2023-03-01T04:27:41;33.67;;;20.07;;
7377;SDS011;3730;50.856;12.776;2023-03-01T04:30:08;34.40;;;20.33;;
7377;SDS011;3730;50.856;12.776;2023-03-01T04:32:34;31.50;;;19.90;;
7377;SDS011;3730;50.856;12.776;2023-03-01T04:35:00;33.87;;;19.93;;
7377;SDS011;3730;50.856;12.776;2023-03-01T04:37:26;33.37;;;20.13;;
7377;SDS011;3730;50.856;12.776;2023-03-01T04:39:52;43.40;;;24.03;;
7377;SDS011;3730;50.856;12.776;2023-03-01T04:42:18;51.87;;;28.27;;
7377;SDS011;3730;50.856;12.776;2023-03-01T04:44:45;54.53;;;30.20;;
7377;SDS011;3730;50.856;12.776;2023-03-01T04:47:11;43.37;;;26.97;;
7377;SDS011;3730;50.856;12.776;2023-03-01T04:49:37;75.07;;;53.33;;
7377;SDS011;3730;50.856;12.776;2023-03-01T04:52:03;50.10;;;35.07;;
7377;SDS011;3730;50.856;12.776;2023-03-01T04:54:31;40.43;;;26.10;;
7377;SDS011;3730;50.856;12.776;2023-03-01T04:56:57;37.20;;;22.23;;
7377;SDS011;3730;50.856;12.776;2023-03-01T04:59:23;38.73;;;22.20;;
7377;SDS011;3730;50.856;12.776;2023-03-01T05:01:54;34.33;;;21.43;;
7377;SDS011;3730;50.856;12.776;2023-03-01T05:04:21;35.37;;;21.07;;
7377;SDS011;3730;50.856;12.776;2023-03-01T05:06:50;36.03;;;24.40;;
7377;SDS011;3730;50.856;12.776;2023-03-01T05:09:15;34.80;;;21.03;;
7377;SDS011;3730;50.856;12.776;2023-03-01T05:11:41;46.37;;;24.90;;
7377;SDS011;3730;50.856;12.776;2023-03-01T05:14:08;35.70;;;22.03;;
7377;SDS011;3730;50.856;12.776;2023-03-01T05:16:34;32.57;;;21.13;;
7377;SDS011;3730;50.856;12.776;2023-03-01T05:19:01;37.43;;;23.07;;
7377;SDS011;3730;50.856;12.776;2023-03-01T05:21:36;39.13;;;23.47;;
7377;SDS011;3730;50.856;12.776;2023-03-01T05:24:23;41.10;;;27.43;;
7377;SDS011;3730;50.856;12.776;2023-03-01T05:26:49;45.30;;;27.07;;
7377;SDS011;3730;50.856;12.776;2023-03-01T05:29:16;38.07;;;23.83;;
7377;SDS011;3730;50.856;12.776;2023-03-01T05:31:44;35.83;;;22.00;;
7377;SDS011;3730;50.856;12.776;2023-03-01T05:34:09;40.00;;;23.40;;
7377;SDS011;3730;50.856;12.776;2023-03-01T05:36:37;37.23;;;21.73;;
7377;SDS011;3730;50.856;12.776;2023-03-01T05:39:03;40.53;;;23.47;;
7377;SDS011;3730;50.856;12.776;2023-03-01T05:41:29;66.37;;;36.03;;
7377;SDS011;3730;50.856;12.776;2023-03-01T05:43:55;56.70;;;31.03;;
7377;SDS011;3730;50.856;12.776;2023-03-01T05:46:20;49.83;;;28.93;;
7377;SDS011;3730;50.856;12.776;2023-03-01T05:48:48;45.47;;;27.67;;
7377;SDS011;3730;50.856;12.776;2023-03-01T05:51:14;43.70;;;26.87;;
7377;SDS011;3730;50.856;12.776;2023-03-01T05:53:39;56.63;;;33.33;;
7377;SDS011;3730;50.856;12.776;2023-03-01T05:56:05;41.00;;;23.50;;
7377;SDS011;3730;50.856;12.776;2023-03-01T05:58:31;41.67;;;23.37;;
7377;SDS011;3730;50.856;12.776;2023-03-01T06:00:57;41.27;;;23.83;;
7377;SDS011;3730;50.856;12.776;2023-03-01T06:03:22;46.30;;;28.33;;
7377;SDS011;3730;50.856;12.776;2023-03-01T06:05:48;36.50;;;23.50;;
7377;SDS011;3730;50.856;12.776;2023-03-01T06:08:13;38.63;;;23.37;;
7377;SDS011;3730;50.856;12.776;2023-03-01T06:10:39;40.00;;;25.63;;
7377;SDS011;3730;50.856;12.776;2023-03-01T06:13:05;78.23;;;40.50;;
7377;SDS011;3730;50.856;12.776;2023-03-01T06:15:32;72.93;;;38.33;;
7377;SDS011;3730;50.856;12.776;2023-03-01T06:17:57;84.33;;;42.70;;
7377;SDS011;3730;50.856;12.776;2023-03-01T06:20:24;67.50;;;37.43;;
7377;SDS011;3730;50.856;12.776;2023-03-01T06:22:51;43.00;;;24.73;;
7377;SDS011;3730;50.856;12.776;2023-03-01T06:25:18;48.50;;;29.13;;
7377;SDS011;3730;50.856;12.776;2023-03-01T06:27:46;40.87;;;24.03;;
7377;SDS011;3730;50.856;12.776;2023-03-01T06:30:14;34.07;;;20.67;;
7377;SDS011;3730;50.856;12.776;2023-03-01T06:32:42;32.37;;;18.77;;
7377;SDS011;3730;50.856;12.776;2023-03-01T06:35:08;33.37;;;20.27;;
7377;SDS011;3730;50.856;12.776;2023-03-01T06:37:35;40.67;;;18.57;;
7377;SDS011;3730;50.856;12.776;2023-03-01T06:40:02;34.77;;;21.20;;
7377;SDS011;3730;50.856;12.776;2023-03-01T06:42:33;34.63;;;21.00;;
7377;SDS011;3730;50.856;12.776;2023-03-01T06:45:03;39.17;;;22.53;;
7377;SDS011;3730;50.856;12.776;2023-03-01T06:47:29;38.37;;;22.67;;
7377;SDS011;3730;50.856;12.776;2023-03-01T06:49:55;33.20;;;19.73;;
7377;SDS011;3730;50.856;12.776;2023-03-01T06:52:21;31.67;;;19.67;;
7377;SDS011;3730;50.856;12.776;2023-03-01T06:54:46;37.93;;;19.37;;
7377;SDS011;3730;50.856;12.776;2023-03-01T06:57:12;30.60;;;19.13;;
7377;SDS011;3730;50.856;12.776;2023-03-01T06:59:37;31.83;;;19.63;;
7377;SDS011;3730;50.856;12.776;2023-03-01T07:02:03;27.73;;;18.47;;
7377;SDS011;3730;50.856;12.776;2023-03-01T07:04:29;29.20;;;19.63;;
7377;SDS011;3730;50.856;12.776;2023-03-01T07:06:55;32.53;;;19.57;;
7377;SDS011;3730;50.856;12.776;2023-03-01T07:09:22;32.20;;;20.00;;
7377;SDS011;3730;50.856;12.776;2023-03-01T07:11:48;34.30;;;20.37;;
7377;SDS011;3730;50.856;12.776;2023-03-01T07:14:15;31.47;;;19.73;;
7377;SDS011;3730;50.856;12.776;2023-03-01T07:16:40;31.67;;;19.60;;
7377;SDS011;3730;50.856;12.776;2023-03-01T07:19:06;30.27;;;18.50;;
7377;SDS011;3730;50.856;12.776;2023-03-01T07:21:32;32.00;;;18.13;;
7377;SDS011;3730;50.856;12.776;2023-03-01T07:23:57;25.70;;;17.27;;
7377;SDS011;3730;50.856;12.776;2023-03-01T07:26:23;30.27;;;17.93;;
7377;SDS011;3730;50.856;12.776;2023-03-01T07:28:49;29.47;;;18.07;;
7377;SDS011;3730;50.856;12.776;2023-03-01T07:31:14;28.53;;;18.13;;
7377;SDS011;3730;50.856;12.776;2023-03-01T07:33:40;31.23;;;18.80;;
7377;SDS011;3730;50.856;12.776;2023-03-01T07:36:06;31.93;;;19.50;;
7377;SDS011;3730;50.856;12.776;2023-03-01T07:38:31;28.60;;;18.27;;
7377;SDS011;3730;50.856;12.776;2023-03-01T07:40:58;29.23;;;19.17;;
7377;SDS011;3730;50.856;12.776;2023-03-01T07:43:25;30.70;;;18.00;;
7377;SDS011;3730;50.856;12.776;2023-03-01T07:45:51;33.07;;;19.03;;
7377;SDS011;3730;50.856;12.776;2023-03-01T07:48:16;31.30;;;18.70;;
7377;SDS011;3730;50.856;12.776;2023-03-01T07:50:42;34.30;;;20.57;;
7377;SDS011;3730;50.856;12.776;2023-03-01T07:53:08;33.87;;;19.63;;
7377;SDS011;3730;50.856;12.776;2023-03-01T07:55:34;30.20;;;19.07;;
7377;SDS011;3730;50.856;12.776;2023-03-01T07:58:00;30.93;;;20.10;;
7377;SDS011;3730;50.856;12.776;2023-03-01T08:00:26;31.60;;;18.80;;
7377;SDS011;3730;50.856;12.776;2023-03-01T08:02:51;33.53;;;19.43;;
7377;SDS011;3730;50.856;12.776;2023-03-01T08:05:17;30.87;;;19.37;;
7377;SDS011;3730;50.856;12.776;2023-03-01T08:07:43;32.23;;;19.63;;
7377;SDS011;3730;50.856;12.776;2023-03-01T08:10:09;30.40;;;19.63;;
7377;SDS011;3730;50.856;12.776;2023-03-01T08:12:35;35.37;;;21.80;;
7377;SDS011;3730;50.856;12.776;2023-03-01T08:15:01;29.40;;;18.37;;
7377;SDS011;3730;50.856;12.776;2023-03-01T08:17:26;29.40;;;19.20;;
7377;SDS011;3730;50.856;12.776;2023-03-01T08:19:52;34.67;;;19.63;;
7377;SDS011;3730;50.856;12.776;2023-03-01T08:22:18;33.80;;;19.70;;
7377;SDS011;3730;50.856;12.776;2023-03-01T08:24:43;29.97;;;19.13;;
7377;SDS011;3730;50.856;12.776;2023-03-01T08:27:09;33.23;;;20.53;;
7377;SDS011;3730;50.856;12.776;2023-03-01T08:29:37;31.37;;;19.10;;
7377;SDS011;3730;50.856;12.776;2023-03-01T08:32:03;31.73;;;18.87;;
7377;SDS011;3730;50.856;12.776;2023-03-01T08:34:29;29.57;;;19.97;;
7377;SDS011;3730;50.856;12.776;2023-03-01T08:36:56;30.87;;;19.57;;
7377;SDS011;3730;50.856;12.776;2023-03-01T08:39:22;31.07;;;18.60;;
7377;SDS011;3730;50.856;12.776;2023-03-01T08:41:48;30.13;;;20.20;;
7377;SDS011;3730;50.856;12.776;2023-03-01T08:44:14;31.70;;;17.97;;
7377;SDS011;3730;50.856;12.776;2023-03-01T08:46:45;30.37;;;18.80;;
7377;SDS011;3730;50.856;12.776;2023-03-01T08:49:13;34.17;;;20.40;;
7377;SDS011;3730;50.856;12.776;2023-03-01T08:51:39;32.00;;;19.67;;
7377;SDS011;3730;50.856;12.776;2023-03-01T08:54:06;32.50;;;19.33;;
7377;SDS011;3730;50.856;12.776;2023-03-01T08:56:33;30.87;;;18.63;;
7377;SDS011;3730;50.856;12.776;2023-03-01T08:58:59;28.77;;;19.50;;
7377;SDS011;3730;50.856;12.776;2023-03-01T09:01:25;32.40;;;21.00;;
7377;SDS011;3730;50.856;12.776;2023-03-01T09:03:51;32.73;;;20.83;;
7377;SDS011;3730;50.856;12.776;2023-03-01T09:06:17;29.17;;;19.13;;
7377;SDS011;3730;50.856;12.776;2023-03-01T09:08:44;32.23;;;19.43;;
7377;SDS011;3730;50.856;12.776;2023-03-01T09:11:11;30.87;;;19.50;;
7377;SDS011;3730;50.856;12.776;2023-03-01T09:13:37;33.27;;;20.90;;
7377;SDS011;3730;50.856;12.776;2023-03-01T09:16:04;30.77;;;19.30;;
7377;SDS011;3730;50.856;12.776;2023-03-01T09:18:31;30.23;;;19.10;;
7377;SDS011;3730;50.856;12.776;2023-03-01T09:21:01;36.50;;;20.57;;
7377;SDS011;3730;50.856;12.776;2023-03-01T09:23:27;30.00;;;19.83;;
7377;SDS011;3730;50.856;12.776;2023-03-01T09:25:53;29.07;;;19.60;;
7377;SDS011;3730;50.856;12.776;2023-03-01T09:28:19;29.93;;;19.73;;
7377;SDS011;3730;50.856;12.776;2023-03-01T09:30:44;29.40;;;19.47;;
7377;SDS011;3730;50.856;12.776;2023-03-01T09:33:10;28.33;;;18.50;;
7377;SDS011;3730;50.856;12.776;2023-03-01T09:35:39;31.57;;;19.43;;
7377;SDS011;3730;50.856;12.776;2023-03-01T09:38:10;33.43;;;19.50;;
7377;SDS011;3730;50.856;12.776;2023-03-01T09:40:37;36.30;;;20.37;;
7377;SDS011;3730;50.856;12.776;2023-03-01T09:43:27;30.93;;;19.83;;
7377;SDS011;3730;50.856;12.776;2023-03-01T09:46:19;29.07;;;17.97;;
7377;SDS011;3730;50.856;12.776;2023-03-01T09:48:57;30.43;;;19.80;;
7377;SDS011;3730;50.856;12.776;2023-03-01T09:51:32;29.77;;;18.97;;
7377;SDS011;3730;50.856;12.776;2023-03-01T09:53:58;29.10;;;18.30;;
7377;SDS011;3730;50.856;12.776;2023-03-01T09:56:42;30.37;;;19.50;;
7377;SDS011;3730;50.856;12.776;2023-03-01T10:04:16;28.47;;;17.43;;
7377;SDS011;3730;50.856;12.776;2023-03-01T10:06:54;30.77;;;18.23;;
7377;SDS011;3730;50.856;12.776;2023-03-01T10:09:21;30.27;;;18.53;;
7377;SDS011;3730;50.856;12.776;2023-03-01T10:11:52;32.50;;;19.40;;
7377;SDS011;3730;50.856;12.776;2023-03-01T10:22:43;28.23;;;17.33;;
7377;SDS011;3730;50.856;12.776;2023-03-01T10:25:15;29.77;;;18.23;;
7377;SDS011;3730;50.856;12.776;2023-03-01T10:27:55;25.43;;;17.07;;
7377;SDS011;3730;50.856;12.776;2023-03-01T10:32:56;25.87;;;17.37;;
7377;SDS011;3730;50.856;12.776;2023-03-01T10:35:27;24.33;;;16.93;;
7377;SDS011;3730;50.856;12.776;2023-03-01T10:38:04;29.37;;;17.73;;
7377;SDS011;3730;50.856;12.776;2023-03-01T10:40:31;26.00;;;17.27;;
7377;SDS011;3730;50.856;12.776;2023-03-01T10:42:57;28.30;;;18.63;;
7377;SDS011;3730;50.856;12.776;2023-03-01T10:50:34;27.27;;;17.17;;
7377;SDS011;3730;50.856;12.776;2023-03-01T10:53:04;24.43;;;16.60;;
7377;SDS011;3730;50.856;12.776;2023-03-01T10:55:37;26.27;;;17.60;;
7377;SDS011;3730;50.856;12.776;2023-03-01T11:03:36;48.90;;;22.77;;
7377;SDS011;3730;50.856;12.776;2023-03-01T11:06:12;30.67;;;18.63;;
7377;SDS011;3730;50.856;12.776;2023-03-01T11:08:47;36.80;;;21.23;;
7377;SDS011;3730;50.856;12.776;2023-03-01T11:13:47;36.90;;;20.97;;
7377;SDS011;3730;50.856;12.776;2023-03-01T11:16:15;30.30;;;19.70;;
7377;SDS011;3730;50.856;12.776;2023-03-01T11:18:55;29.97;;;19.87;;
7377;SDS011;3730;50.856;12.776;2023-03-01T11:21:21;33.30;;;19.03;;
7377;SDS011;3730;50.856;12.776;2023-03-01T11:23:48;32.77;;;19.07;;
7377;SDS011;3730;50.856;12.776;2023-03-01T11:26:14;28.40;;;18.73;;
7377;SDS011;3730;50.856;12.776;2023-03-01T11:28:41;37.03;;;18.87;;
7377;SDS011;3730;50.856;12.776;2023-03-01T11:31:12;26.67;;;19.67;;
7377;SDS011;3730;50.856;12.776;2023-03-01T11:33:55;32.33;;;19.30;;
7377;SDS011;3730;50.856;12.776;2023-03-01T11:39:22;28.80;;;19.40;;
7377;SDS011;3730;50.856;12.776;2023-03-01T11:42:15;26.13;;;16.97;;
7377;SDS011;3730;50.856;12.776;2023-03-01T11:44:44;27.97;;;17.97;;
7377;SDS011;3730;50.856;12.776;2023-03-01T11:52:27;27.97;;;18.57;;
7377;SDS011;3730;50.856;12.776;2023-03-01T12:02:56;26.70;;;17.50;;
7377;SDS011;3730;50.856;12.776;2023-03-01T12:10:55;32.97;;;19.83;;
7377;SDS011;3730;50.856;12.776;2023-03-01T12:19:03;37.93;;;19.83;;
7377;SDS011;3730;50.856;12.776;2023-03-01T12:34:33;36.00;;;20.80;;
7377;SDS011;3730;50.856;12.776;2023-03-01T12:37:19;33.07;;;20.97;;
7377;SDS011;3730;50.856;12.776;2023-03-01T12:39:53;31.13;;;20.90;;
7377;SDS011;3730;50.856;12.776;2023-03-01T12:42:30;36.30;;;22.67;;
7377;SDS011;3730;50.856;12.776;2023-03-01T12:52:39;29.50;;;20.40;;
7377;SDS011;3730;50.856;12.776;2023-03-01T12:55:08;34.60;;;20.43;;
7377;SDS011;3730;50.856;12.776;2023-03-01T12:57:42;30.30;;;20.97;;
7377;SDS011;3730;50.856;12.776;2023-03-01T13:00:26;29.03;;;21.40;;
7377;SDS011;3730;50.856;12.776;2023-03-01T13:13:37;35.90;;;22.13;;
7377;SDS011;3730;50.856;12.776;2023-03-01T13:16:45;29.20;;;20.93;;
7377;SDS011;3730;50.856;12.776;2023-03-01T13:19:05;34.30;;;22.43;;
7377;SDS011;3730;50.856;12.776;2023-03-01T13:21:31;28.03;;;19.33;;
7377;SDS011;3730;50.856;12.776;2023-03-01T13:23:58;43.80;;;20.30;;
7377;SDS011;3730;50.856;12.776;2023-03-01T13:26:24;29.27;;;19.47;;
7377;SDS011;3730;50.856;12.776;2023-03-01T13:28:51;30.57;;;20.00;;
7377;SDS011;3730;50.856;12.776;2023-03-01T13:33:52;30.80;;;19.70;;
7377;SDS011;3730;50.856;12.776;2023-03-01T13:39:00;28.93;;;20.07;;
7377;SDS011;3730;50.856;12.776;2023-03-01T13:46:46;34.13;;;21.27;;
7377;SDS011;3730;50.856;12.776;2023-03-01T13:49:14;28.97;;;20.60;;
7377;SDS011;3730;50.856;12.776;2023-03-01T13:51:41;27.47;;;20.10;;
7377;SDS011;3730;50.856;12.776;2023-03-01T13:54:12;28.00;;;19.40;;
7377;SDS011;3730;50.856;12.776;2023-03-01T13:56:38;30.00;;;21.23;;
7377;SDS011;3730;50.856;12.776;2023-03-01T13:59:05;32.37;;;20.93;;
7377;SDS011;3730;50.856;12.776;2023-03-01T14:01:35;32.00;;;19.90;;
7377;SDS011;3730;50.856;12.776;2023-03-01T14:04:18;33.23;;;19.83;;
7377;SDS011;3730;50.856;12.776;2023-03-01T14:06:44;26.53;;;19.40;;
7377;SDS011;3730;50.856;12.776;2023-03-01T14:09:15;54.70;;;19.23;;
7377;SDS011;3730;50.856;12.776;2023-03-01T14:11:54;27.60;;;18.87;;
7377;SDS011;3730;50.856;12.776;2023-03-01T14:14:28;27.63;;;17.67;;
7377;SDS011;3730;50.856;12.776;2023-03-01T14:19:28;25.43;;;17.40;;
7377;SDS011;3730;50.856;12.776;2023-03-01T14:22:37;28.50;;;17.53;;
7377;SDS011;3730;50.856;12.776;2023-03-01T14:24:46;31.27;;;17.60;;
7377;SDS011;3730;50.856;12.776;2023-03-01T14:27:14;26.30;;;18.17;;
7377;SDS011;3730;50.856;12.776;2023-03-01T14:29:40;32.33;;;17.33;;
7377;SDS011;3730;50.856;12.776;2023-03-01T14:32:19;25.70;;;16.90;;
7377;SDS011;3730;50.856;12.776;2023-03-01T14:34:46;27.33;;;18.30;;
7377;SDS011;3730;50.856;12.776;2023-03-01T14:39:45;27.93;;;18.80;;
7377;SDS011;3730;50.856;12.776;2023-03-01T14:42:11;54.20;;;21.40;;
7377;SDS011;3730;50.856;12.776;2023-03-01T14:44:40;25.50;;;17.47;;
7377;SDS011;3730;50.856;12.776;2023-03-01T14:50:23;34.10;;;18.00;;
7377;SDS011;3730;50.856;12.776;2023-03-01T14:52:50;27.43;;;16.90;;
7377;SDS011;3730;50.856;12.776;2023-03-01T14:55:18;27.57;;;17.60;;
7377;SDS011;3730;50.856;12.776;2023-03-01T14:57:46;32.90;;;17.93;;
7377;SDS011;3730;50.856;12.776;2023-03-01T15:00:18;23.07;;;17.40;;
7377;SDS011;3730;50.856;12.776;2023-03-01T15:02:45;24.80;;;16.80;;
7377;SDS011;3730;50.856;12.776;2023-03-01T15:05:13;26.57;;;16.83;;
7377;SDS011;3730;50.856;12.776;2023-03-01T15:07:40;25.27;;;17.57;;
7377;SDS011;3730;50.856;12.776;2023-03-01T15:10:07;47.97;;;28.57;;
7377;SDS011;3730;50.856;12.776;2023-03-01T15:12:40;26.77;;;18.40;;
7377;SDS011;3730;50.856;12.776;2023-03-01T15:17:58;25.17;;;16.60;;
7377;SDS011;3730;50.856;12.776;2023-03-01T15:20:25;23.33;;;14.63;;
7377;SDS011;3730;50.856;12.776;2023-03-01T15:22:53;22.50;;;15.33;;
7377;SDS011;3730;50.856;12.776;2023-03-01T15:25:20;23.03;;;15.27;;
7377;SDS011;3730;50.856;12.776;2023-03-01T15:27:47;24.63;;;15.90;;
7377;SDS011;3730;50.856;12.776;2023-03-01T15:30:23;22.87;;;16.07;;
7377;SDS011;3730;50.856;12.776;2023-03-01T15:35:48;22.07;;;16.10;;
7377;SDS011;3730;50.856;12.776;2023-03-01T15:38:34;22.23;;;15.17;;
7377;SDS011;3730;50.856;12.776;2023-03-01T15:41:27;26.53;;;14.90;;
7377;SDS011;3730;50.856;12.776;2023-03-01T15:43:56;21.03;;;14.67;;
7377;SDS011;3730;50.856;12.776;2023-03-01T15:48:55;25.20;;;15.30;;
7377;SDS011;3730;50.856;12.776;2023-03-01T15:51:29;22.80;;;15.13;;
7377;SDS011;3730;50.856;12.776;2023-03-01T15:54:04;23.90;;;14.77;;
7377;SDS011;3730;50.856;12.776;2023-03-01T15:56:35;23.77;;;14.63;;
7377;SDS011;3730;50.856;12.776;2023-03-01T15:59:01;23.53;;;15.07;;
7377;SDS011;3730;50.856;12.776;2023-03-01T16:01:27;24.80;;;15.10;;
7377;SDS011;3730;50.856;12.776;2023-03-01T16:03:54;24.50;;;16.40;;
7377;SDS011;3730;50.856;12.776;2023-03-01T16:06:19;21.67;;;14.67;;
7377;SDS011;3730;50.856;12.776;2023-03-01T16:08:45;21.80;;;14.50;;
7377;SDS011;3730;50.856;12.776;2023-03-01T16:11:17;23.17;;;15.17;;
7377;SDS011;3730;50.856;12.776;2023-03-01T16:13:44;21.60;;;14.13;;
7377;SDS011;3730;50.856;12.776;2023-03-01T16:16:11;21.60;;;14.23;;
7377;SDS011;3730;50.856;12.776;2023-03-01T16:18:40;23.87;;;15.97;;
7377;SDS011;3730;50.856;12.776;2023-03-01T16:21:06;24.57;;;15.10;;
7377;SDS011;3730;50.856;12.776;2023-03-01T16:23:32;27.00;;;15.77;;
7377;SDS011;3730;50.856;12.776;2023-03-01T16:25:58;23.03;;;15.20;;
7377;SDS011;3730;50.856;12.776;2023-03-01T16:28:25;21.57;;;14.43;;
7377;SDS011;3730;50.856;12.776;2023-03-01T16:30:51;24.40;;;15.70;;
7377;SDS011;3730;50.856;12.776;2023-03-01T16:33:17;21.83;;;15.07;;
7377;SDS011;3730;50.856;12.776;2023-03-01T16:35:43;22.63;;;15.17;;
7377;SDS011;3730;50.856;12.776;2023-03-01T16:38:10;23.80;;;14.80;;
7377;SDS011;3730;50.856;12.776;2023-03-01T16:40:36;28.30;;;15.63;;
7377;SDS011;3730;50.856;12.776;2023-03-01T16:43:02;24.97;;;15.37;;
7377;SDS011;3730;50.856;12.776;2023-03-01T16:45:32;26.13;;;16.40;;
7377;SDS011;3730;50.856;12.776;2023-03-01T16:48:00;24.23;;;16.40;;